Svitzer Leixoes — CSXW6 — position and weather

sailwx.info

Track history (hours):
 
Tides and Currents Weather Stations Pressure Air Temp Water Temp Dewpoint Dewpoint Depression Visibility Wind Speed Wind Dir Waves Ship Positions

Svitzer Leixoes

Last reported at 2016-Feb-14 03:33 UTC. Time now 2016-Feb-14 03:57 UTC.
Position N 38°42' W 009°10'.

; draft 3.6 m.

Type: Towing. MMSI: 263622000.

Date/timePositionNaut miles runAvg speedWind from/ knotsBaromVisibWave heightAir tempDewpointWater temp
2016-Feb-14 03:33N 38°42' W 009°10'0 0.0
2016-Feb-14 02:32N 38°42' W 009°10'0 0.0
2016-Feb-14 01:32N 38°42' W 009°10'0 0.0
2016-Feb-14 00:33N 38°42' W 009°10'0 0.0
2016-Feb-13 23:33N 38°42' W 009°10'0 0.0
2016-Feb-13 22:32N 38°42' W 009°10'0 0.0
2016-Feb-13 21:33N 38°42' W 009°10'0 0.0
2016-Feb-13 20:33N 38°42' W 009°10'0 0.0
2016-Feb-13 19:33N 38°42' W 009°10'0 0.0
2016-Feb-13 18:33N 38°42' W 009°10'0 0.0
2016-Feb-13 17:33N 38°42' W 009°10'0 0.0
2016-Feb-13 16:32N 38°42' W 009°10'0 0.0
2016-Feb-13 15:33N 38°42' W 009°10'0 0.0
2016-Feb-13 14:33N 38°42' W 009°10'0 0.0
2016-Feb-13 13:33N 38°42' W 009°10'0 0.0
2016-Feb-13 12:32N 38°42' W 009°10'0 0.0
2016-Feb-13 11:33N 38°42' W 009°10'0 0.0
2016-Feb-13 10:33N 38°42' W 009°10'0 0.0
2016-Feb-13 09:33N 38°42' W 009°10'0 0.0
2016-Feb-13 08:33N 38°42' W 009°10'3 3.3
2016-Feb-13 07:33N 38°41' W 009°14'3 3.1
2016-Feb-13 06:33N 38°42' W 009°10'0 0.2
2016-Feb-13 05:33N 38°42' W 009°10'0 0.0
2016-Feb-13 04:33N 38°42' W 009°10'0 0.0
2016-Feb-13 03:33N 38°42' W 009°10'0 0.0
2016-Feb-13 02:33N 38°42' W 009°10'0 0.0
2016-Feb-13 01:32N 38°42' W 009°10'0 0.0
2016-Feb-13 00:33N 38°42' W 009°10'0 0.0
2016-Feb-12 23:32N 38°42' W 009°10'0 0.0
2016-Feb-12 22:32N 38°42' W 009°10'0 0.0
2016-Feb-12 21:33N 38°42' W 009°10'0 0.0
2016-Feb-12 20:33N 38°42' W 009°10'0 0.0
2016-Feb-12 19:32N 38°42' W 009°10'0 0.0
2016-Feb-12 18:32N 38°42' W 009°10'0 0.0
2016-Feb-12 17:33N 38°42' W 009°10'0 0.0
2016-Feb-12 16:34N 38°42' W 009°10'0 0.1
2016-Feb-12 15:33N 38°42' W 009°10'0 0.1
2016-Feb-12 14:33N 38°42' W 009°10'0 0.0
2016-Feb-12 13:33N 38°42' W 009°10'0 0.0
2016-Feb-12 12:32N 38°42' W 009°10'0 0.0
2016-Feb-12 11:33N 38°42' W 009°10'0 0.0
2016-Feb-12 10:32N 38°42' W 009°10'0 0.0
2016-Feb-12 09:33N 38°42' W 009°10'0 0.0
2016-Feb-12 08:33N 38°42' W 009°10'0 0.0
2016-Feb-12 07:33N 38°42' W 009°10'0 0.0
2016-Feb-12 06:33N 38°42' W 009°10'0 0.0
2016-Feb-12 05:33N 38°42' W 009°10'0 0.0
2016-Feb-12 04:33N 38°42' W 009°10'0 0.0
2016-Feb-12 03:33N 38°42' W 009°10'0 0.0
2016-Feb-12 02:33N 38°42' W 009°10'0 0.0
2016-Feb-12 01:33N 38°42' W 009°10'0 0.0
2016-Feb-12 00:33N 38°42' W 009°10'0 0.0
2016-Feb-11 23:33N 38°42' W 009°10'2 1.6
2016-Feb-11 22:33N 38°41' W 009°11'1 1.5
2016-Feb-11 21:33N 38°41' W 009°13'3 2.6
2016-Feb-11 20:33N 38°42' W 009°10'0 0.0
2016-Feb-11 19:32N 38°42' W 009°10'0 0.0
2016-Feb-11 18:33N 38°42' W 009°10'0 0.0
2016-Feb-11 17:32N 38°42' W 009°10'0 0.0
2016-Feb-11 16:32N 38°42' W 009°10'0 0.0
2016-Feb-11 15:32N 38°42' W 009°10'0 0.0
2016-Feb-11 14:33N 38°42' W 009°10'0 0.0
2016-Feb-11 13:34N 38°42' W 009°10'0 0.0
2016-Feb-11 12:33N 38°42' W 009°10'0 0.0
2016-Feb-11 11:33N 38°42' W 009°10'0 0.0
2016-Feb-11 10:33N 38°42' W 009°10'0 0.0
2016-Feb-11 09:33N 38°42' W 009°10'0 0.0
2016-Feb-11 08:33N 38°42' W 009°10'0 0.0
2016-Feb-11 07:33N 38°42' W 009°10'0 0.0
2016-Feb-11 06:33N 38°42' W 009°10'0 0.0
2016-Feb-11 05:33N 38°42' W 009°10'0 0.0
2016-Feb-11 04:33N 38°42' W 009°10'0 0.0
2016-Feb-11 03:33N 38°42' W 009°10'0 0.0
2016-Feb-11 02:33N 38°42' W 009°10'0 0.0
2016-Feb-11 01:33N 38°42' W 009°10'0 0.0
2016-Feb-11 00:33N 38°42' W 009°10'0 0.0
2016-Feb-10 23:33N 38°42' W 009°10'0 0.0
2016-Feb-10 22:33N 38°42' W 009°10'0 0.0
2016-Feb-10 21:33N 38°42' W 009°10'0 0.0
2016-Feb-10 20:33N 38°42' W 009°10'0 0.0
2016-Feb-10 19:34N 38°42' W 009°10'0 0.0
2016-Feb-10 18:33N 38°42' W 009°10'2 1.8
2016-Feb-10 17:33N 38°41' W 009°08'2 1.8
2016-Feb-10 16:33N 38°42' W 009°10'0 0.0
2016-Feb-10 15:33N 38°42' W 009°10'0 0.0
2016-Feb-10 14:33N 38°42' W 009°10'0 0.0
2016-Feb-10 13:33N 38°42' W 009°10'0 0.0
2016-Feb-10 12:33N 38°42' W 009°10'0 0.0
2016-Feb-10 11:33N 38°42' W 009°10'1 0.7
2016-Feb-10 10:33N 38°42' W 009°10'3 3.3
2016-Feb-10 09:33N 38°41' W 009°14'2 1.7
2016-Feb-10 08:33N 38°41' W 009°12'2 2.2
2016-Feb-10 07:32N 38°42' W 009°10'0 0.0
2016-Feb-10 06:33N 38°42' W 009°10'0 0.0
2016-Feb-10 05:33N 38°42' W 009°10'0 0.0
2016-Feb-10 04:33N 38°42' W 009°10'0 0.0
2016-Feb-10 03:33N 38°42' W 009°10'0 0.0
2016-Feb-10 02:33N 38°42' W 009°10'0 0.0
2016-Feb-10 01:33N 38°42' W 009°10'0 0.0
2016-Feb-10 00:33N 38°42' W 009°10'0 0.0
2016-Feb-09 23:32N 38°42' W 009°10'0 0.0
2016-Feb-09 22:33N 38°42' W 009°10'0 0.0
2016-Feb-09 21:32N 38°42' W 009°10'0 0.0
2016-Feb-09 20:32N 38°42' W 009°10'0 0.0
2016-Feb-09 19:33N 38°42' W 009°10'0 0.0
2016-Feb-09 18:33N 38°42' W 009°10'0 0.0
2016-Feb-09 17:33N 38°42' W 009°10'0 0.0
2016-Feb-09 16:33N 38°42' W 009°10'0 0.0
2016-Feb-09 15:32N 38°42' W 009°10'0 0.0
2016-Feb-09 14:33N 38°42' W 009°10'0 0.0
2016-Feb-09 13:33N 38°42' W 009°10'0 0.0
2016-Feb-09 12:33N 38°42' W 009°10'0 0.0
2016-Feb-09 11:33N 38°42' W 009°10'0 0.0
2016-Feb-09 10:33N 38°42' W 009°10'0 0.0
2016-Feb-09 09:33N 38°42' W 009°10'0 0.0
2016-Feb-09 08:32N 38°42' W 009°10'0 0.3
2016-Feb-09 07:33N 38°42' W 009°10'4 3.7
2016-Feb-09 06:33N 38°41' W 009°14'0 0.0
2016-Feb-09 05:32N 38°41' W 009°14'4 4.0
2016-Feb-09 04:33N 38°42' W 009°10'0 0.0
2016-Feb-09 03:33N 38°42' W 009°10'0 0.0
2016-Feb-09 02:33N 38°42' W 009°10'0 0.0
2016-Feb-09 01:33N 38°42' W 009°10'0 0.0
2016-Feb-09 00:33N 38°42' W 009°10'0 0.0
2016-Feb-08 23:33N 38°42' W 009°10'0 0.0
2016-Feb-08 22:33N 38°42' W 009°10'0 0.0
2016-Feb-08 21:33N 38°42' W 009°10'0 0.0
2016-Feb-08 20:33N 38°42' W 009°10'0 0.0
2016-Feb-08 19:33N 38°42' W 009°10'0 0.0
2016-Feb-08 18:34N 38°42' W 009°10'0 0.0
2016-Feb-08 17:33N 38°42' W 009°10'0 0.0
2016-Feb-08 16:31N 38°42' W 009°10'0 0.0
2016-Feb-08 15:33N 38°42' W 009°10'0 0.0
2016-Feb-08 14:32N 38°42' W 009°10'0 0.0
2016-Feb-08 13:32N 38°42' W 009°10'0 0.0
2016-Feb-08 12:33N 38°42' W 009°10'0 0.0
2016-Feb-08 11:32N 38°42' W 009°10'0 0.0
2016-Feb-08 10:33N 38°42' W 009°10'1 0.8
2016-Feb-08 09:33N 38°42' W 009°09'1 0.8
2016-Feb-08 08:33N 38°42' W 009°10'0 0.1
2016-Feb-08 07:32N 38°42' W 009°10'0 0.0
2016-Feb-08 06:33N 38°42' W 009°10'0 0.0
2016-Feb-08 05:33N 38°42' W 009°10'0 0.0
2016-Feb-08 04:32N 38°42' W 009°10'0 0.0
2016-Feb-08 03:33N 38°42' W 009°10'0 0.0
2016-Feb-08 02:33N 38°42' W 009°10'0 0.0
2016-Feb-08 01:33N 38°42' W 009°10'0 0.0
2016-Feb-08 00:33N 38°42' W 009°10'2 2.3
2016-Feb-07 23:33N 38°41' W 009°07'2 2.1
2016-Feb-07 22:33N 38°42' W 009°09'0 0.2
2016-Feb-07 21:32N 38°42' W 009°10'0 0.0
2016-Feb-07 20:32N 38°42' W 009°10'0 0.0
2016-Feb-07 19:33N 38°42' W 009°10'0 0.0
2016-Feb-07 18:32N 38°42' W 009°10'0 0.0
2016-Feb-07 17:34N 38°42' W 009°10'0 0.0
2016-Feb-07 16:33N 38°42' W 009°10'0 0.0
2016-Feb-07 15:32N 38°42' W 009°10'5 4.9
2016-Feb-07 14:33N 38°41' W 009°04'5 4.5
2016-Feb-07 13:34N 38°42' W 009°09'0 0.4
2016-Feb-07 12:33N 38°42' W 009°10'0 0.0
2016-Feb-07 11:33N 38°42' W 009°10'3 3.0
2016-Feb-07 10:33N 38°41' W 009°06'1 0.5
2016-Feb-07 09:33N 38°41' W 009°07'2 2.4
2016-Feb-07 08:33N 38°42' W 009°10'0 0.0
2016-Feb-07 07:33N 38°42' W 009°10'0 0.0
2016-Feb-07 06:33N 38°42' W 009°10'0 0.0
2016-Feb-07 05:32N 38°42' W 009°10'0 0.0
2016-Feb-07 04:32N 38°42' W 009°10'0 0.0
2016-Feb-07 03:32N 38°42' W 009°10'0 0.0
2016-Feb-07 02:32N 38°42' W 009°10'0 0.0
2016-Feb-07 01:34N 38°42' W 009°10'0 0.0
2016-Feb-07 00:33N 38°42' W 009°10'0 0.0
2016-Feb-06 23:33N 38°42' W 009°10'3 2.9
2016-Feb-06 22:33N 38°43' W 009°06'3 2.8
2016-Feb-06 21:33N 38°42' W 009°10'0 0.0
2016-Feb-06 20:32N 38°42' W 009°10'0 0.0
2016-Feb-06 19:25N 38°42' W 009°10'0 0.0
2016-Feb-06 18:32N 38°42' W 009°10'0 0.0
2016-Feb-06 17:34N 38°42' W 009°10'0 0.0
2016-Feb-06 16:31N 38°42' W 009°10'0 0.0
2016-Feb-06 15:33N 38°42' W 009°10'0 0.0
2016-Feb-06 14:33N 38°42' W 009°10'0 0.0
2016-Feb-06 13:33N 38°42' W 009°10'0 0.0
2016-Feb-06 12:33N 38°42' W 009°10'0 0.0
2016-Feb-06 11:33N 38°42' W 009°10'0 0.0
2016-Feb-06 10:33N 38°42' W 009°10'0 0.0
2016-Feb-06 09:33N 38°42' W 009°10'0 0.0
2016-Feb-06 08:33N 38°42' W 009°10'2 2.4
2016-Feb-06 07:33N 38°43' W 009°07'2 2.4
2016-Feb-06 06:32N 38°42' W 009°10'0 0.0
2016-Feb-06 05:34N 38°42' W 009°10'0 0.0
2016-Feb-06 04:32N 38°42' W 009°10'0 0.0
2016-Feb-06 03:33N 38°42' W 009°10'0 0.0
2016-Feb-06 02:33N 38°42' W 009°10'2 2.2
2016-Feb-06 01:33N 38°41' W 009°12'1 1.0
2016-Feb-06 00:33N 38°41' W 009°11'1 1.3
2016-Feb-05 23:34N 38°42' W 009°09'0 0.2
2016-Feb-05 22:33N 38°42' W 009°10'0 0.0
2016-Feb-05 21:33N 38°42' W 009°10'0 0.0
2016-Feb-05 20:33N 38°42' W 009°10'0 0.0
2016-Feb-05 19:32N 38°42' W 009°10'0 0.0
2016-Feb-05 18:33N 38°42' W 009°10'0 0.0
2016-Feb-05 17:33N 38°42' W 009°10'0 0.0
2016-Feb-05 16:32N 38°42' W 009°10'0 0.0
2016-Feb-05 15:33N 38°42' W 009°10'0 0.0
2016-Feb-05 14:33N 38°42' W 009°10'0 0.0
2016-Feb-05 13:33N 38°42' W 009°10'0 0.0
2016-Feb-05 12:33N 38°42' W 009°10'0 0.0
2016-Feb-05 11:34N 38°42' W 009°10'0 0.0
2016-Feb-05 10:33N 38°42' W 009°10'0 0.0
2016-Feb-05 09:33N 38°42' W 009°10'0 0.0
2016-Feb-05 08:33N 38°42' W 009°10'0 0.0
2016-Feb-05 07:34N 38°42' W 009°10'0 0.0
2016-Feb-05 06:32N 38°42' W 009°10'0 0.0
2016-Feb-05 05:33N 38°42' W 009°10'0 0.0
2016-Feb-05 04:32N 38°42' W 009°10'0 0.0
2016-Feb-05 03:33N 38°42' W 009°10'0 0.0
2016-Feb-05 02:33N 38°42' W 009°10'0 0.0
2016-Feb-05 01:33N 38°42' W 009°10'0 0.0
2016-Feb-05 00:28N 38°42' W 009°10'0 0.0
2016-Feb-04 23:33N 38°42' W 009°10'0 0.0
2016-Feb-04 22:30N 38°42' W 009°10'0 0.0
2016-Feb-04 21:33N 38°42' W 009°10'0 0.0
2016-Feb-04 20:33N 38°42' W 009°10'0 0.0
2016-Feb-04 19:33N 38°42' W 009°10'0 0.0
2016-Feb-04 18:32N 38°42' W 009°10'0 0.0
2016-Feb-04 17:32N 38°42' W 009°10'0 0.0
2016-Feb-04 16:33N 38°42' W 009°10'0 0.0
2016-Feb-04 15:32N 38°42' W 009°10'0 0.0
2016-Feb-04 14:33N 38°42' W 009°10'0 0.0
2016-Feb-04 13:32N 38°42' W 009°10'0 0.0
2016-Feb-04 12:32N 38°42' W 009°10'0 0.0
2016-Feb-04 11:33N 38°42' W 009°10'0 0.0
2016-Feb-04 10:33N 38°42' W 009°10'0 0.0
2016-Feb-04 09:33N 38°42' W 009°10'0 0.0
2016-Feb-04 08:33N 38°42' W 009°10'0 0.0
2016-Feb-04 07:31N 38°42' W 009°10'0 0.0
2016-Feb-04 06:32N 38°42' W 009°10'0 0.0
2016-Feb-04 05:32N 38°42' W 009°10'0 0.0
2016-Feb-04 04:32N 38°42' W 009°10'  
Track history (hours):
 
Tides and Currents Weather Stations Pressure Air Temp Water Temp Dewpoint Dewpoint Depression Visibility Wind Speed Wind Dir Waves Ship Positions

Svitzer Leixoes

Last reported at 2016-Feb-14 03:33 UTC. Time now 2016-Feb-14 03:57 UTC.
Position N 38°42' W 009°10'.

; draft 3.6 m.

Type: Towing. MMSI: 263622000.

Date/timePositionNaut miles runAvg speedWind from/ knotsBaromVisibWave heightAir tempDewpointWater temp
2016-Feb-14 03:33N 38°42' W 009°10'0 0.0
2016-Feb-14 02:32N 38°42' W 009°10'0 0.0
2016-Feb-14 01:32N 38°42' W 009°10'0 0.0
2016-Feb-14 00:33N 38°42' W 009°10'0 0.0
2016-Feb-13 23:33N 38°42' W 009°10'0 0.0
2016-Feb-13 22:32N 38°42' W 009°10'0 0.0
2016-Feb-13 21:33N 38°42' W 009°10'0 0.0
2016-Feb-13 20:33N 38°42' W 009°10'0 0.0
2016-Feb-13 19:33N 38°42' W 009°10'0 0.0
2016-Feb-13 18:33N 38°42' W 009°10'0 0.0
2016-Feb-13 17:33N 38°42' W 009°10'0 0.0
2016-Feb-13 16:32N 38°42' W 009°10'0 0.0
2016-Feb-13 15:33N 38°42' W 009°10'0 0.0
2016-Feb-13 14:33N 38°42' W 009°10'0 0.0
2016-Feb-13 13:33N 38°42' W 009°10'0 0.0
2016-Feb-13 12:32N 38°42' W 009°10'0 0.0
2016-Feb-13 11:33N 38°42' W 009°10'0 0.0
2016-Feb-13 10:33N 38°42' W 009°10'0 0.0
2016-Feb-13 09:33N 38°42' W 009°10'0 0.0
2016-Feb-13 08:33N 38°42' W 009°10'3 3.3
2016-Feb-13 07:33N 38°41' W 009°14'3 3.1
2016-Feb-13 06:33N 38°42' W 009°10'0 0.2
2016-Feb-13 05:33N 38°42' W 009°10'0 0.0
2016-Feb-13 04:33N 38°42' W 009°10'0 0.0
2016-Feb-13 03:33N 38°42' W 009°10'0 0.0
2016-Feb-13 02:33N 38°42' W 009°10'0 0.0
2016-Feb-13 01:32N 38°42' W 009°10'0 0.0
2016-Feb-13 00:33N 38°42' W 009°10'0 0.0
2016-Feb-12 23:32N 38°42' W 009°10'0 0.0
2016-Feb-12 22:32N 38°42' W 009°10'0 0.0
2016-Feb-12 21:33N 38°42' W 009°10'0 0.0
2016-Feb-12 20:33N 38°42' W 009°10'0 0.0
2016-Feb-12 19:32N 38°42' W 009°10'0 0.0
2016-Feb-12 18:32N 38°42' W 009°10'0 0.0
2016-Feb-12 17:33N 38°42' W 009°10'0 0.0
2016-Feb-12 16:34N 38°42' W 009°10'0 0.1
2016-Feb-12 15:33N 38°42' W 009°10'0 0.1
2016-Feb-12 14:33N 38°42' W 009°10'0 0.0
2016-Feb-12 13:33N 38°42' W 009°10'0 0.0
2016-Feb-12 12:32N 38°42' W 009°10'0 0.0
2016-Feb-12 11:33N 38°42' W 009°10'0 0.0
2016-Feb-12 10:32N 38°42' W 009°10'0 0.0
2016-Feb-12 09:33N 38°42' W 009°10'0 0.0
2016-Feb-12 08:33N 38°42' W 009°10'0 0.0
2016-Feb-12 07:33N 38°42' W 009°10'0 0.0
2016-Feb-12 06:33N 38°42' W 009°10'0 0.0
2016-Feb-12 05:33N 38°42' W 009°10'0 0.0
2016-Feb-12 04:33N 38°42' W 009°10'0 0.0
2016-Feb-12 03:33N 38°42' W 009°10'0 0.0
2016-Feb-12 02:33N 38°42' W 009°10'0 0.0
2016-Feb-12 01:33N 38°42' W 009°10'0 0.0
2016-Feb-12 00:33N 38°42' W 009°10'0 0.0
2016-Feb-11 23:33N 38°42' W 009°10'2 1.6
2016-Feb-11 22:33N 38°41' W 009°11'1 1.5
2016-Feb-11 21:33N 38°41' W 009°13'3 2.6
2016-Feb-11 20:33N 38°42' W 009°10'0 0.0
2016-Feb-11 19:32N 38°42' W 009°10'0 0.0
2016-Feb-11 18:33N 38°42' W 009°10'0 0.0
2016-Feb-11 17:32N 38°42' W 009°10'0 0.0
2016-Feb-11 16:32N 38°42' W 009°10'0 0.0
2016-Feb-11 15:32N 38°42' W 009°10'0 0.0
2016-Feb-11 14:33N 38°42' W 009°10'0 0.0
2016-Feb-11 13:34N 38°42' W 009°10'0 0.0
2016-Feb-11 12:33N 38°42' W 009°10'0 0.0
2016-Feb-11 11:33N 38°42' W 009°10'0 0.0
2016-Feb-11 10:33N 38°42' W 009°10'0 0.0
2016-Feb-11 09:33N 38°42' W 009°10'0 0.0
2016-Feb-11 08:33N 38°42' W 009°10'0 0.0
2016-Feb-11 07:33N 38°42' W 009°10'0 0.0
2016-Feb-11 06:33N 38°42' W 009°10'0 0.0
2016-Feb-11 05:33N 38°42' W 009°10'0 0.0
2016-Feb-11 04:33N 38°42' W 009°10'0 0.0
2016-Feb-11 03:33N 38°42' W 009°10'0 0.0
2016-Feb-11 02:33N 38°42' W 009°10'0 0.0
2016-Feb-11 01:33N 38°42' W 009°10'0 0.0
2016-Feb-11 00:33N 38°42' W 009°10'0 0.0
2016-Feb-10 23:33N 38°42' W 009°10'0 0.0
2016-Feb-10 22:33N 38°42' W 009°10'0 0.0
2016-Feb-10 21:33N 38°42' W 009°10'0 0.0
2016-Feb-10 20:33N 38°42' W 009°10'0 0.0
2016-Feb-10 19:34N 38°42' W 009°10'0 0.0
2016-Feb-10 18:33N 38°42' W 009°10'2 1.8
2016-Feb-10 17:33N 38°41' W 009°08'2 1.8
2016-Feb-10 16:33N 38°42' W 009°10'0 0.0
2016-Feb-10 15:33N 38°42' W 009°10'0 0.0
2016-Feb-10 14:33N 38°42' W 009°10'0 0.0
2016-Feb-10 13:33N 38°42' W 009°10'0 0.0
2016-Feb-10 12:33N 38°42' W 009°10'0 0.0
2016-Feb-10 11:33N 38°42' W 009°10'1 0.7
2016-Feb-10 10:33N 38°42' W 009°10'3 3.3
2016-Feb-10 09:33N 38°41' W 009°14'2 1.7
2016-Feb-10 08:33N 38°41' W 009°12'2 2.2
2016-Feb-10 07:32N 38°42' W 009°10'0 0.0
2016-Feb-10 06:33N 38°42' W 009°10'0 0.0
2016-Feb-10 05:33N 38°42' W 009°10'0 0.0
2016-Feb-10 04:33N 38°42' W 009°10'0 0.0
2016-Feb-10 03:33N 38°42' W 009°10'0 0.0
2016-Feb-10 02:33N 38°42' W 009°10'0 0.0
2016-Feb-10 01:33N 38°42' W 009°10'0 0.0
2016-Feb-10 00:33N 38°42' W 009°10'0 0.0
2016-Feb-09 23:32N 38°42' W 009°10'0 0.0
2016-Feb-09 22:33N 38°42' W 009°10'0 0.0
2016-Feb-09 21:32N 38°42' W 009°10'0 0.0
2016-Feb-09 20:32N 38°42' W 009°10'0 0.0
2016-Feb-09 19:33N 38°42' W 009°10'0 0.0
2016-Feb-09 18:33N 38°42' W 009°10'0 0.0
2016-Feb-09 17:33N 38°42' W 009°10'0 0.0
2016-Feb-09 16:33N 38°42' W 009°10'0 0.0
2016-Feb-09 15:32N 38°42' W 009°10'0 0.0
2016-Feb-09 14:33N 38°42' W 009°10'0 0.0
2016-Feb-09 13:33N 38°42' W 009°10'0 0.0
2016-Feb-09 12:33N 38°42' W 009°10'0 0.0
2016-Feb-09 11:33N 38°42' W 009°10'0 0.0
2016-Feb-09 10:33N 38°42' W 009°10'0 0.0
2016-Feb-09 09:33N 38°42' W 009°10'0 0.0
2016-Feb-09 08:32N 38°42' W 009°10'0 0.3
2016-Feb-09 07:33N 38°42' W 009°10'4 3.7
2016-Feb-09 06:33N 38°41' W 009°14'0 0.0
2016-Feb-09 05:32N 38°41' W 009°14'4 4.0
2016-Feb-09 04:33N 38°42' W 009°10'0 0.0
2016-Feb-09 03:33N 38°42' W 009°10'0 0.0
2016-Feb-09 02:33N 38°42' W 009°10'0 0.0
2016-Feb-09 01:33N 38°42' W 009°10'0 0.0
2016-Feb-09 00:33N 38°42' W 009°10'0 0.0
2016-Feb-08 23:33N 38°42' W 009°10'0 0.0
2016-Feb-08 22:33N 38°42' W 009°10'0 0.0
2016-Feb-08 21:33N 38°42' W 009°10'0 0.0
2016-Feb-08 20:33N 38°42' W 009°10'0 0.0
2016-Feb-08 19:33N 38°42' W 009°10'0 0.0
2016-Feb-08 18:34N 38°42' W 009°10'0 0.0
2016-Feb-08 17:33N 38°42' W 009°10'0 0.0
2016-Feb-08 16:31N 38°42' W 009°10'0 0.0
2016-Feb-08 15:33N 38°42' W 009°10'0 0.0
2016-Feb-08 14:32N 38°42' W 009°10'0 0.0
2016-Feb-08 13:32N 38°42' W 009°10'0 0.0
2016-Feb-08 12:33N 38°42' W 009°10'0 0.0
2016-Feb-08 11:32N 38°42' W 009°10'0 0.0
2016-Feb-08 10:33N 38°42' W 009°10'1 0.8
2016-Feb-08 09:33N 38°42' W 009°09'1 0.8
2016-Feb-08 08:33N 38°42' W 009°10'0 0.1
2016-Feb-08 07:32N 38°42' W 009°10'0 0.0
2016-Feb-08 06:33N 38°42' W 009°10'0 0.0
2016-Feb-08 05:33N 38°42' W 009°10'0 0.0
2016-Feb-08 04:32N 38°42' W 009°10'0 0.0
2016-Feb-08 03:33N 38°42' W 009°10'0 0.0
2016-Feb-08 02:33N 38°42' W 009°10'0 0.0
2016-Feb-08 01:33N 38°42' W 009°10'0 0.0
2016-Feb-08 00:33N 38°42' W 009°10'2 2.3
2016-Feb-07 23:33N 38°41' W 009°07'2 2.1
2016-Feb-07 22:33N 38°42' W 009°09'0 0.2
2016-Feb-07 21:32N 38°42' W 009°10'0 0.0
2016-Feb-07 20:32N 38°42' W 009°10'0 0.0
2016-Feb-07 19:33N 38°42' W 009°10'0 0.0
2016-Feb-07 18:32N 38°42' W 009°10'0 0.0
2016-Feb-07 17:34N 38°42' W 009°10'0 0.0
2016-Feb-07 16:33N 38°42' W 009°10'0 0.0
2016-Feb-07 15:32N 38°42' W 009°10'5 4.9
2016-Feb-07 14:33N 38°41' W 009°04'5 4.5
2016-Feb-07 13:34N 38°42' W 009°09'0 0.4
2016-Feb-07 12:33N 38°42' W 009°10'0 0.0
2016-Feb-07 11:33N 38°42' W 009°10'3 3.0
2016-Feb-07 10:33N 38°41' W 009°06'1 0.5
2016-Feb-07 09:33N 38°41' W 009°07'2 2.4
2016-Feb-07 08:33N 38°42' W 009°10'0 0.0
2016-Feb-07 07:33N 38°42' W 009°10'0 0.0
2016-Feb-07 06:33N 38°42' W 009°10'0 0.0
2016-Feb-07 05:32N 38°42' W 009°10'0 0.0
2016-Feb-07 04:32N 38°42' W 009°10'0 0.0
2016-Feb-07 03:32N 38°42' W 009°10'0 0.0
2016-Feb-07 02:32N 38°42' W 009°10'0 0.0
2016-Feb-07 01:34N 38°42' W 009°10'0 0.0
2016-Feb-07 00:33N 38°42' W 009°10'0 0.0
2016-Feb-06 23:33N 38°42' W 009°10'3 2.9
2016-Feb-06 22:33N 38°43' W 009°06'3 2.8
2016-Feb-06 21:33N 38°42' W 009°10'0 0.0
2016-Feb-06 20:32N 38°42' W 009°10'0 0.0
2016-Feb-06 19:25N 38°42' W 009°10'0 0.0
2016-Feb-06 18:32N 38°42' W 009°10'0 0.0
2016-Feb-06 17:34N 38°42' W 009°10'0 0.0
2016-Feb-06 16:31N 38°42' W 009°10'0 0.0
2016-Feb-06 15:33N 38°42' W 009°10'0 0.0
2016-Feb-06 14:33N 38°42' W 009°10'0 0.0
2016-Feb-06 13:33N 38°42' W 009°10'0 0.0
2016-Feb-06 12:33N 38°42' W 009°10'0 0.0
2016-Feb-06 11:33N 38°42' W 009°10'0 0.0
2016-Feb-06 10:33N 38°42' W 009°10'0 0.0
2016-Feb-06 09:33N 38°42' W 009°10'0 0.0
2016-Feb-06 08:33N 38°42' W 009°10'2 2.4
2016-Feb-06 07:33N 38°43' W 009°07'2 2.4
2016-Feb-06 06:32N 38°42' W 009°10'0 0.0
2016-Feb-06 05:34N 38°42' W 009°10'0 0.0
2016-Feb-06 04:32N 38°42' W 009°10'0 0.0
2016-Feb-06 03:33N 38°42' W 009°10'0 0.0
2016-Feb-06 02:33N 38°42' W 009°10'2 2.2
2016-Feb-06 01:33N 38°41' W 009°12'1 1.0
2016-Feb-06 00:33N 38°41' W 009°11'1 1.3
2016-Feb-05 23:34N 38°42' W 009°09'0 0.2
2016-Feb-05 22:33N 38°42' W 009°10'0 0.0
2016-Feb-05 21:33N 38°42' W 009°10'0 0.0
2016-Feb-05 20:33N 38°42' W 009°10'0 0.0
2016-Feb-05 19:32N 38°42' W 009°10'0 0.0
2016-Feb-05 18:33N 38°42' W 009°10'0 0.0
2016-Feb-05 17:33N 38°42' W 009°10'0 0.0
2016-Feb-05 16:32N 38°42' W 009°10'0 0.0
2016-Feb-05 15:33N 38°42' W 009°10'0 0.0
2016-Feb-05 14:33N 38°42' W 009°10'0 0.0
2016-Feb-05 13:33N 38°42' W 009°10'0 0.0
2016-Feb-05 12:33N 38°42' W 009°10'0 0.0
2016-Feb-05 11:34N 38°42' W 009°10'0 0.0
2016-Feb-05 10:33N 38°42' W 009°10'0 0.0
2016-Feb-05 09:33N 38°42' W 009°10'0 0.0
2016-Feb-05 08:33N 38°42' W 009°10'0 0.0
2016-Feb-05 07:34N 38°42' W 009°10'0 0.0
2016-Feb-05 06:32N 38°42' W 009°10'0 0.0
2016-Feb-05 05:33N 38°42' W 009°10'0 0.0
2016-Feb-05 04:32N 38°42' W 009°10'0 0.0
2016-Feb-05 03:33N 38°42' W 009°10'0 0.0
2016-Feb-05 02:33N 38°42' W 009°10'0 0.0
2016-Feb-05 01:33N 38°42' W 009°10'0 0.0
2016-Feb-05 00:28N 38°42' W 009°10'0 0.0
2016-Feb-04 23:33N 38°42' W 009°10'0 0.0
2016-Feb-04 22:30N 38°42' W 009°10'0 0.0
2016-Feb-04 21:33N 38°42' W 009°10'0 0.0
2016-Feb-04 20:33N 38°42' W 009°10'0 0.0
2016-Feb-04 19:33N 38°42' W 009°10'0 0.0
2016-Feb-04 18:32N 38°42' W 009°10'0 0.0
2016-Feb-04 17:32N 38°42' W 009°10'0 0.0
2016-Feb-04 16:33N 38°42' W 009°10'0 0.0
2016-Feb-04 15:32N 38°42' W 009°10'0 0.0
2016-Feb-04 14:33N 38°42' W 009°10'0 0.0
2016-Feb-04 13:32N 38°42' W 009°10'0 0.0
2016-Feb-04 12:32N 38°42' W 009°10'0 0.0
2016-Feb-04 11:33N 38°42' W 009°10'0 0.0
2016-Feb-04 10:33N 38°42' W 009°10'0 0.0
2016-Feb-04 09:33N 38°42' W 009°10'0 0.0
2016-Feb-04 08:33N 38°42' W 009°10'0 0.0
2016-Feb-04 07:31N 38°42' W 009°10'0 0.0
2016-Feb-04 06:32N 38°42' W 009°10'0 0.0
2016-Feb-04 05:32N 38°42' W 009°10'0 0.0
2016-Feb-04 04:32N 38°42' W 009°10'  

Dump ship's entire track history